createdAt,value
2018-05-09T00:00:58.431Z,95753.76
2018-05-09T00:03:29.043Z,95749.77
2018-05-09T00:05:59.145Z,95747.10
2018-05-09T00:08:29.534Z,95754.16
2018-05-09T00:11:00.392Z,95744.03
2018-05-09T00:13:30.830Z,95749.77
2018-05-09T00:16:00.910Z,95749.36
2018-05-09T00:18:31.300Z,95751.61
2018-05-09T00:21:01.379Z,95749.36
2018-05-09T00:23:31.438Z,95755.20
2018-05-09T00:26:01.542Z,95745.08
2018-05-09T00:28:31.954Z,95748.14
2018-05-09T00:31:02.052Z,95744.55
2018-05-09T00:33:32.450Z,95747.22
2018-05-09T00:36:04.054Z,95747.73
2018-05-09T00:38:34.759Z,95748.14
2018-05-09T00:41:05.680Z,95749.59
2018-05-09T00:43:37.733Z,95746.00
2018-05-09T00:46:07.811Z,95749.59
2018-05-09T00:48:39.503Z,95747.84
2018-05-09T00:51:09.595Z,95745.19
2018-05-09T00:53:39.994Z,95747.44
2018-05-09T00:56:10.083Z,95745.19
2018-05-09T00:58:41.363Z,95744.78
2018-05-09T01:01:12.225Z,95750.52
2018-05-09T01:03:42.637Z,95748.48
2018-05-09T01:06:13.516Z,95746.63
2018-05-09T01:08:43.678Z,95741.83
2018-05-09T01:11:14.530Z,95746.63
2018-05-09T01:13:44.947Z,95745.30
2018-05-09T01:16:15.044Z,95746.74
2018-05-09T01:18:45.737Z,95742.75
2018-05-09T01:21:15.829Z,95745.82
2018-05-09T01:23:46.274Z,95737.91
2018-05-09T01:26:16.537Z,95740.69
2018-05-09T01:28:46.806Z,95738.84
2018-05-09T01:31:17.255Z,95749.81
2018-05-09T01:33:48.092Z,95742.83
2018-05-09T01:36:18.528Z,95744.16
2018-05-09T01:38:48.607Z,95746.94
2018-05-09T01:41:19.791Z,95744.28
2018-05-09T01:43:49.866Z,95740.80
2018-05-09T01:46:20.300Z,95742.55
2018-05-09T01:48:50.359Z,95739.87
2018-05-09T01:51:20.794Z,95738.55
2018-05-09T01:53:50.870Z,95734.96
2018-05-09T01:56:22.370Z,95738.14
2018-05-09T01:58:52.516Z,95736.29
2018-05-09T02:01:23.829Z,95727.09
2018-05-09T02:03:53.658Z,95735.48
2018-05-09T02:06:24.387Z,95736.29
2018-05-09T02:08:55.202Z,95723.50
2018-05-09T02:11:26.059Z,95723.09
2018-05-09T02:13:56.463Z,95720.95
2018-05-09T02:16:27.330Z,95726.27
2018-05-09T02:18:57.732Z,95725.47
2018-05-09T02:21:27.839Z,95727.20
2018-05-09T02:23:59.396Z,95723.20
2018-05-09T02:26:30.362Z,95724.54
2018-05-09T02:29:00.775Z,95719.21
2018-05-09T02:31:30.850Z,95727.20
2018-05-09T02:34:01.289Z,95725.98
2018-05-09T02:36:31.394Z,95725.98
2018-05-09T02:39:01.809Z,95725.06
2018-05-09T02:41:32.259Z,95722.80
2018-05-09T02:44:02.871Z,95720.66
2018-05-09T02:46:32.959Z,95723.81
2018-05-09T02:49:03.359Z,95719.41
2018-05-09T02:51:33.990Z,95720.73
2018-05-09T02:54:04.053Z,95724.33
2018-05-09T02:56:34.914Z,95724.73
2018-05-09T02:59:05.324Z,95724.84
2018-05-09T03:01:35.948Z,95719.00
2018-05-09T03:04:06.348Z,95723.00
2018-05-09T03:06:36.459Z,95714.61
2018-05-09T03:09:06.132Z,95707.14
2018-05-09T03:11:36.236Z,95714.72
2018-05-09T03:14:06.324Z,95719.00
2018-05-09T03:16:36.747Z,95716.57
2018-05-09T03:19:06.834Z,95721.38
2018-05-09T03:21:37.270Z,95721.38
2018-05-09T03:24:07.103Z,95721.78
2018-05-09T03:26:37.204Z,95719.52
2018-05-09T03:29:07.599Z,95712.98
2018-05-09T03:31:38.451Z,95715.64
2018-05-09T03:34:08.879Z,95709.51
2018-05-09T03:36:39.733Z,95709.91
2018-05-09T03:39:09.791Z,95712.28
2018-05-09T03:41:39.884Z,95706.96
2018-05-09T03:44:10.264Z,95704.82
2018-05-09T03:46:41.133Z,95702.45
2018-05-09T03:49:11.743Z,95706.96
2018-05-09T03:51:42.585Z,95695.91
2018-05-09T03:54:12.431Z,95707.37
2018-05-09T03:56:43.142Z,95720.16
2018-05-09T03:59:13.963Z,95721.60
2018-05-09T04:02:01.631Z,95728.66
2018-05-09T04:04:48.815Z,95736.24
2018-05-09T04:07:36.075Z,95731.33
2018-05-09T04:10:06.529Z,95733.58
2018-05-09T04:12:36.602Z,95733.98
2018-05-09T04:15:07.189Z,95730.92
2018-05-09T04:17:37.802Z,95731.73
2018-05-09T04:20:07.862Z,95733.47
2018-05-09T04:22:40.355Z,95733.06
2018-05-09T04:25:11.178Z,95736.02
2018-05-09T04:27:42.050Z,95740.02
2018-05-09T04:30:12.450Z,95739.89
2018-05-09T04:32:44.022Z,95737.95
2018-05-09T04:35:14.838Z,95745.49
2018-05-09T04:37:46.189Z,95747.03
2018-05-09T04:40:16.899Z,95742.30
2018-05-09T04:42:47.512Z,95742.10
2018-05-09T04:45:18.130Z,95741.88
2018-05-09T04:47:48.260Z,95746.16
2018-05-09T04:50:18.935Z,95742.09
2018-05-09T04:52:49.822Z,95742.38
2018-05-09T04:55:20.571Z,95740.41
2018-05-09T04:57:50.788Z,95743.38
2018-05-09T05:00:20.901Z,95745.02
2018-05-09T05:02:51.645Z,95741.95
2018-05-09T05:05:21.707Z,95745.72
2018-05-09T05:07:52.161Z,95744.16
2018-05-09T05:10:22.590Z,95749.48
2018-05-09T05:12:53.448Z,95747.23
2018-05-09T05:15:23.531Z,95748.08
2018-05-09T05:17:54.718Z,95747.44
2018-05-09T05:20:24.802Z,95747.84
2018-05-09T05:22:56.270Z,95751.61
2018-05-09T05:25:26.953Z,95745.36
2018-05-09T05:27:57.200Z,95742.09
2018-05-09T05:30:28.363Z,95752.12
2018-05-09T05:32:59.175Z,95750.67
2018-05-09T05:35:29.255Z,95752.30
2018-05-09T05:37:59.374Z,95743.82
2018-05-09T05:40:29.445Z,95749.55
2018-05-09T05:43:00.642Z,95754.77
2018-05-09T05:45:30.770Z,95755.06
2018-05-09T05:48:01.552Z,95763.45
2018-05-09T05:50:32.050Z,95759.75
2018-05-09T05:53:03.281Z,95761.48
2018-05-09T05:55:33.687Z,95753.94
2018-05-09T05:58:04.743Z,95758.22
2018-05-09T06:00:35.155Z,95760.77
2018-05-09T06:03:05.577Z,95759.44
2018-05-09T06:05:36.566Z,95756.25
2018-05-09T06:08:07.024Z,95765.98
2018-05-09T06:10:37.110Z,95765.05
2018-05-09T06:13:07.247Z,95763.20
2018-05-09T06:15:37.700Z,95763.61
2018-05-09T06:18:07.810Z,95768.85
2018-05-09T06:20:38.547Z,95760.87
2018-05-09T06:23:09.011Z,95768.22
2018-05-09T06:25:39.850Z,95767.30
2018-05-09T06:28:10.577Z,95768.22
2018-05-09T06:30:41.010Z,95774.88
2018-05-09T06:33:11.918Z,95777.84
2018-05-09T06:35:41.975Z,95781.11
2018-05-09T06:38:12.418Z,95779.78
2018-05-09T06:40:43.050Z,95784.48
2018-05-09T06:43:13.708Z,95786.09
2018-05-09T06:45:43.812Z,95789.69
2018-05-09T06:48:14.459Z,95789.58
2018-05-09T06:50:44.895Z,95797.48
2018-05-09T06:53:14.987Z,95794.70
2018-05-09T06:55:45.390Z,95798.18
2018-05-09T06:58:15.475Z,95797.55
2018-05-09T07:00:45.299Z,95792.63
2018-05-09T07:03:16.559Z,95799.17
2018-05-09T07:05:46.631Z,95796.02
2018-05-09T07:08:17.074Z,95795.91
2018-05-09T07:10:47.149Z,95796.72
2018-05-09T07:13:17.566Z,95797.02
2018-05-09T07:15:48.287Z,95805.81
2018-05-09T07:18:18.381Z,95799.04
2018-05-09T07:20:48.783Z,95795.89
2018-05-09T07:23:18.891Z,95798.44
2018-05-09T07:25:49.506Z,95800.17
2018-05-09T07:28:19.599Z,95796.47
2018-05-09T07:30:49.662Z,95803.53
2018-05-09T07:33:20.388Z,95806.61
2018-05-09T07:35:50.442Z,95809.67
2018-05-09T07:38:20.518Z,95808.66
2018-05-09T07:40:50.930Z,95813.39
2018-05-09T07:43:21.019Z,95811.25
2018-05-09T07:45:51.099Z,95801.11
2018-05-09T07:48:21.831Z,95803.66
2018-05-09T07:50:52.672Z,95801.41
2018-05-09T07:53:23.103Z,95801.58
2018-05-09T07:55:53.943Z,95807.13
2018-05-09T07:58:25.124Z,95812.34
2018-05-09T08:00:55.198Z,95809.03
2018-05-09T08:03:25.631Z,95814.25
2018-05-09T08:05:56.547Z,95813.12
2018-05-09T08:08:26.760Z,95815.67
2018-05-09T08:10:56.819Z,95814.64
2018-05-09T08:13:26.946Z,95814.95
2018-05-09T08:15:57.359Z,95807.66
2018-05-09T08:18:27.450Z,95816.47
2018-05-09T08:20:57.571Z,95819.31
2018-05-09T08:23:27.662Z,95815.64
2018-05-09T08:25:57.755Z,95812.34
2018-05-09T08:28:28.182Z,95805.16
2018-05-09T08:30:58.775Z,95810.28
2018-05-09T08:33:29.983Z,95801.25
2018-05-09T08:36:00.057Z,95798.06
2018-05-09T08:38:30.350Z,95802.59
2018-05-09T08:41:00.750Z,95793.03
2018-05-09T08:43:31.446Z,95798.56
2018-05-09T08:46:01.655Z,95799.67
2018-05-09T08:48:31.740Z,95792.59
2018-05-09T08:51:01.830Z,95800.28
2018-05-09T08:53:32.654Z,95799.36
2018-05-09T08:56:02.725Z,95804.45
2018-05-09T08:58:33.179Z,95798.90
2018-05-09T09:01:03.254Z,95804.86
2018-05-09T09:03:33.358Z,95810.72
2018-05-09T09:06:03.758Z,95806.72
2018-05-09T09:08:33.852Z,95809.55
2018-05-09T09:11:04.262Z,95802.06
2018-05-09T09:13:34.906Z,95804.49
2018-05-09T09:16:04.962Z,95798.33
2018-05-09T09:18:36.188Z,95795.66
2018-05-09T09:21:06.466Z,95795.26
2018-05-09T09:23:36.884Z,95794.04
2018-05-09T09:26:06.952Z,95791.48
2018-05-09T09:28:37.056Z,95790.62
2018-05-09T09:31:07.463Z,95785.64
2018-05-09T09:33:38.322Z,95783.12
2018-05-09T09:36:09.027Z,95788.28
2018-05-09T09:38:39.977Z,95783.94
2018-05-09T09:41:10.511Z,95787.71
2018-05-09T09:43:40.622Z,95780.50
2018-05-09T09:46:11.023Z,95773.97
2018-05-09T09:48:41.119Z,95766.78
2018-05-09T09:51:11.518Z,95769.31
2018-05-09T09:53:41.607Z,95760.27
2018-05-09T09:56:12.229Z,95756.27
2018-05-09T09:58:43.623Z,95759.62
2018-05-09T10:01:14.236Z,95756.78
2018-05-09T10:03:45.107Z,95758.49
2018-05-09T10:06:15.527Z,95754.52
2018-05-09T10:08:45.631Z,95761.35
2018-05-09T10:11:16.331Z,95764.98
2018-05-09T10:13:46.419Z,95764.31
2018-05-09T10:16:16.510Z,95767.04
2018-05-09T10:18:47.583Z,95760.89
2018-05-09T10:21:17.991Z,95755.94
2018-05-09T10:23:48.087Z,95756.88
2018-05-09T10:26:18.933Z,95749.09
2018-05-09T10:28:49.763Z,95758.98
2018-05-09T10:31:20.217Z,95757.39
2018-05-09T10:33:50.436Z,95749.42
2018-05-09T10:36:20.523Z,95752.41
2018-05-09T10:38:50.639Z,95745.16
2018-05-09T10:41:21.839Z,95745.16
2018-05-09T10:43:51.917Z,95746.15
2018-05-09T10:46:21.995Z,95736.81
2018-05-09T10:48:51.619Z,95734.45
2018-05-09T10:51:22.811Z,95727.06
2018-05-09T10:53:53.671Z,95726.70
2018-05-09T10:56:24.647Z,95720.95
2018-05-09T10:58:55.060Z,95719.66
2018-05-09T11:01:25.132Z,95720.97
2018-05-09T11:03:55.991Z,95719.91
2018-05-09T11:06:26.407Z,95727.14
2018-05-09T11:08:57.263Z,95724.71
2018-05-09T11:11:28.323Z,95722.88
2018-05-09T11:13:59.863Z,95728.41
2018-05-09T11:16:29.695Z,95726.15
2018-05-09T11:19:00.338Z,95719.84
2018-05-09T11:21:30.412Z,95716.24
2018-05-09T11:24:00.822Z,95717.98
2018-05-09T11:26:31.445Z,95720.31
2018-05-09T11:29:01.551Z,95713.55
2018-05-09T11:31:32.262Z,95714.30
2018-05-09T11:34:02.350Z,95713.09
2018-05-09T11:36:32.454Z,95706.97
2018-05-09T11:39:02.895Z,95710.94
2018-05-09T11:41:33.491Z,95708.63
2018-05-09T11:44:04.890Z,95714.78
2018-05-09T11:46:35.499Z,95715.86
2018-05-09T11:49:06.350Z,95717.41
2018-05-09T11:51:36.831Z,95706.06
2018-05-09T11:54:06.923Z,95708.05
2018-05-09T11:56:37.034Z,95698.50
2018-05-09T11:59:07.464Z,95698.61
2018-05-09T12:01:38.082Z,95696.39
2018-05-09T12:04:08.941Z,95696.59
2018-05-09T12:06:39.548Z,95692.23
2018-05-09T12:09:10.416Z,95691.17
2018-05-09T12:11:41.014Z,95687.70
2018-05-09T12:14:11.884Z,95687.18
2018-05-09T12:16:42.274Z,95685.84
2018-05-09T12:19:12.363Z,95687.58
2018-05-09T12:21:43.743Z,95684.19
2018-05-09T12:24:15.132Z,95680.19
2018-05-09T12:26:45.200Z,95674.23
2018-05-09T12:29:15.823Z,95677.47
2018-05-09T12:31:45.891Z,95678.14
2018-05-09T12:34:16.536Z,95674.06
2018-05-09T12:36:47.142Z,95674.51
2018-05-09T12:39:17.231Z,95674.02
2018-05-09T12:41:48.099Z,95673.45
2018-05-09T12:44:18.223Z,95668.96
2018-05-09T12:46:48.638Z,95667.05
2018-05-09T12:49:19.228Z,95665.92
2018-05-09T12:51:49.818Z,95668.03
2018-05-09T12:54:20.672Z,95660.88
2018-05-09T12:56:51.096Z,95653.81
2018-05-09T12:59:21.954Z,95656.12
2018-05-09T13:01:52.037Z,95650.22
2018-05-09T13:04:22.919Z,95654.98
2018-05-09T13:06:52.988Z,95639.02
2018-05-09T13:09:24.483Z,95635.42
2018-05-09T13:11:55.811Z,95635.79
2018-05-09T13:14:26.460Z,95638.12
2018-05-09T13:16:57.051Z,95632.96
2018-05-09T13:19:27.660Z,95624.95
2018-05-09T13:21:58.270Z,95627.74
2018-05-09T13:24:28.873Z,95635.42
2018-05-09T13:26:59.197Z,95632.30
2018-05-09T13:29:30.567Z,95624.87
2018-05-09T13:32:01.153Z,95620.74
2018-05-09T13:34:31.264Z,95619.20
2018-05-09T13:37:02.136Z,95613.74
2018-05-09T13:39:32.245Z,95607.07
2018-05-09T13:42:02.663Z,95601.61
2018-05-09T13:44:34.131Z,95605.09
2018-05-09T13:47:05.586Z,95597.89
2018-05-09T13:49:36.450Z,95594.61
2018-05-09T13:52:07.059Z,95597.16
2018-05-09T13:54:37.906Z,95596.56
2018-05-09T13:57:07.992Z,95598.13
2018-05-09T13:59:38.425Z,95588.39
2018-05-09T14:02:09.807Z,95588.03
2018-05-09T14:04:40.439Z,95589.36
2018-05-09T14:07:11.035Z,95585.52
2018-05-09T14:09:41.647Z,95578.04
2018-05-09T14:12:12.266Z,95584.48
2018-05-09T14:14:42.907Z,95584.00
2018-05-09T14:17:13.503Z,95587.67
2018-05-09T14:19:44.139Z,95585.73
2018-05-09T14:22:14.755Z,95585.16
2018-05-09T14:24:45.337Z,95577.61
2018-05-09T14:27:15.481Z,95577.12
2018-05-09T14:29:45.700Z,95580.56
2018-05-09T14:32:15.909Z,95576.08
2018-05-09T14:34:46.727Z,95574.55
2018-05-09T14:37:18.075Z,95573.45
2018-05-09T14:39:48.676Z,95565.28
2018-05-09T14:42:19.267Z,95566.42
2018-05-09T14:44:51.402Z,95562.25
2018-05-09T14:47:22.746Z,95561.12
2018-05-09T14:49:53.371Z,95555.63
2018-05-09T14:52:24.487Z,95560.77
2018-05-09T14:54:54.971Z,95561.53
2018-05-09T14:57:25.547Z,95554.58
2018-05-09T14:59:55.647Z,95553.36
2018-05-09T15:02:25.731Z,95551.59
2018-05-09T15:04:55.858Z,95548.64
2018-05-09T15:07:26.559Z,95553.64
2018-05-09T15:09:57.951Z,95550.53
2018-05-09T15:12:28.542Z,95549.64
2018-05-09T15:14:59.921Z,95544.52
2018-05-09T15:17:30.483Z,95547.59
2018-05-09T15:20:01.826Z,95552.72
2018-05-09T15:22:33.130Z,95549.00
2018-05-09T15:25:04.067Z,95543.86
2018-05-09T15:27:34.689Z,95545.20
2018-05-09T15:30:05.048Z,95539.43
2018-05-09T15:32:35.883Z,95544.08
2018-05-09T15:35:06.322Z,95541.36
2018-05-09T15:37:37.659Z,95546.50
2018-05-09T15:40:08.238Z,95547.83
2018-05-09T15:42:39.423Z,95549.41
2018-05-09T15:45:09.524Z,95550.91
2018-05-09T15:47:40.132Z,95546.78
2018-05-09T15:50:10.724Z,95547.19
2018-05-09T15:52:40.978Z,95548.23
2018-05-09T15:55:11.057Z,95541.85
2018-05-09T15:57:41.902Z,95550.26
2018-05-09T16:00:12.340Z,95535.59
2018-05-09T16:02:43.678Z,95543.59
2018-05-09T16:05:14.131Z,95540.64
2018-05-09T16:07:45.447Z,95534.78
2018-05-09T16:10:16.310Z,95536.64
2018-05-09T16:12:46.396Z,95533.00
2018-05-09T16:15:17.587Z,95539.95
2018-05-09T16:17:48.173Z,95531.75
2018-05-09T16:20:18.279Z,95534.13
2018-05-09T16:22:48.380Z,95530.66
2018-05-09T16:25:19.082Z,95528.64
2018-05-09T16:27:49.547Z,95534.90
2018-05-09T16:30:19.642Z,95532.23
2018-05-09T16:32:50.083Z,95536.81
2018-05-09T16:35:20.689Z,95535.59
2018-05-09T16:37:51.531Z,95533.98
2018-05-09T16:40:21.971Z,95528.45
2018-05-09T16:42:52.078Z,95530.30
2018-05-09T16:45:22.491Z,95528.41
2018-05-09T16:47:53.338Z,95531.72
2018-05-09T16:50:24.115Z,95536.44
2018-05-09T16:52:54.710Z,95532.44
2018-05-09T16:55:25.327Z,95529.89
2018-05-09T16:57:55.391Z,95527.23
2018-05-09T17:00:26.199Z,95530.83
2018-05-09T17:02:56.731Z,95527.75
2018-05-09T17:05:26.899Z,95532.77
2018-05-09T17:07:58.503Z,95530.10
2018-05-09T17:10:28.590Z,95531.55
2018-05-09T17:12:58.668Z,95532.60
2018-05-09T17:15:29.571Z,95525.25
2018-05-09T17:17:59.646Z,95526.27
2018-05-09T17:20:29.748Z,95522.79
2018-05-09T17:23:00.543Z,95528.77
2018-05-09T17:25:31.038Z,95520.08
2018-05-09T17:28:01.357Z,95533.41
2018-05-09T17:30:31.834Z,95532.16
2018-05-09T17:33:03.006Z,95530.54
2018-05-09T17:35:33.439Z,95531.06
2018-05-09T17:38:03.904Z,95532.52
2018-05-09T17:40:35.129Z,95533.44
2018-05-09T17:43:05.475Z,95533.16
2018-05-09T17:45:35.930Z,95528.44
2018-05-09T17:48:06.811Z,95527.10
2018-05-09T17:50:37.300Z,95528.55
2018-05-09T17:53:08.662Z,95526.41
2018-05-09T17:55:38.782Z,95529.60
2018-05-09T17:58:09.446Z,95523.58
2018-05-09T18:00:40.173Z,95520.91
2018-05-09T18:03:10.825Z,95518.73
2018-05-09T18:05:42.043Z,95528.59
2018-05-09T18:08:13.398Z,95527.90
2018-05-09T18:10:44.035Z,95524.83
2018-05-09T18:13:14.446Z,95523.70
2018-05-09T18:15:44.907Z,95529.56
2018-05-09T18:18:15.335Z,95527.02
2018-05-09T18:20:45.967Z,95533.27
2018-05-09T18:23:16.399Z,95531.53
2018-05-09T18:25:46.830Z,95530.44
2018-05-09T18:28:17.805Z,95526.52
2018-05-09T18:30:49.044Z,95528.38
2018-05-09T18:33:19.115Z,95524.91
2018-05-09T18:35:49.536Z,95527.28
2018-05-09T18:38:19.964Z,95529.66
2018-05-09T18:40:51.963Z,95530.19
2018-05-09T18:43:22.077Z,95528.86
2018-05-09T18:45:52.515Z,95531.73
2018-05-09T18:48:22.595Z,95534.26
2018-05-09T18:50:52.696Z,95533.34
2018-05-09T18:53:23.152Z,95528.54
2018-05-09T18:55:53.825Z,95533.75
2018-05-09T18:58:24.509Z,95541.86
2018-05-09T19:00:55.193Z,95539.20
2018-05-09T19:03:25.874Z,95541.45
2018-05-09T19:05:56.554Z,95549.02
2018-05-09T19:08:27.994Z,95549.54
2018-05-09T19:11:00.839Z,95552.61
2018-05-09T19:13:31.523Z,95553.53
2018-05-09T19:16:02.262Z,95557.94
2018-05-09T19:18:32.976Z,95560.60
2018-05-09T19:21:04.451Z,95558.34
2018-05-09T19:23:35.151Z,95557.01
2018-05-09T19:26:06.155Z,95557.13
2018-05-09T19:28:36.906Z,95561.12
2018-05-09T19:31:07.731Z,95561.93
2018-05-09T19:33:38.431Z,95565.92
2018-05-09T19:36:09.153Z,95566.45
2018-05-09T19:38:40.688Z,95566.05
2018-05-09T19:41:11.540Z,95570.97
2018-05-09T19:43:42.241Z,95572.19
2018-05-09T19:46:12.955Z,95568.30
2018-05-09T19:48:43.421Z,95567.90
2018-05-09T19:51:13.883Z,95572.70
2018-05-09T19:53:45.336Z,95573.11
2018-05-09T19:56:16.799Z,95571.78
2018-05-09T19:58:47.477Z,95574.44
2018-05-09T20:01:18.159Z,95571.48
2018-05-09T20:03:50.193Z,95580.81
2018-05-09T20:06:20.901Z,95567.50
2018-05-09T20:08:52.318Z,95574.67
2018-05-09T20:11:22.962Z,95580.00
2018-05-09T20:13:53.671Z,95577.75
2018-05-09T20:16:24.500Z,95576.94
2018-05-09T20:18:55.159Z,95575.20
2018-05-09T20:21:25.861Z,95572.13
2018-05-09T20:23:56.501Z,95573.86
2018-05-09T20:26:27.191Z,95572.53
2018-05-09T20:29:02.562Z,95572.13
2018-05-09T20:31:55.422Z,95568.54
2018-05-09T20:34:26.067Z,95576.53
2018-05-09T20:36:56.748Z,95575.72
2018-05-09T20:39:27.378Z,95576.64
2018-05-09T20:41:58.134Z,95586.90
2018-05-09T20:44:28.892Z,95577.14
2018-05-09T20:46:59.555Z,95574.47
2018-05-09T20:49:30.197Z,95574.47
2018-05-09T20:52:00.867Z,95573.26
2018-05-09T20:54:31.516Z,95580.23
2018-05-09T20:57:02.192Z,95590.45
2018-05-09T20:59:32.838Z,95594.45
2018-05-09T21:02:03.258Z,95595.38
2018-05-09T21:04:33.903Z,95599.38
2018-05-09T21:07:06.079Z,95594.05
2018-05-09T21:09:36.736Z,95593.23
2018-05-09T21:12:12.023Z,95589.65
2018-05-09T21:14:42.675Z,95590.58
2018-05-09T21:17:13.870Z,95588.44
2018-05-09T21:19:44.502Z,95594.57
2018-05-09T21:22:15.162Z,95592.31
2018-05-09T21:24:45.812Z,95591.91
2018-05-09T21:27:16.702Z,95591.50
2018-05-09T21:29:47.438Z,95591.50
2018-05-09T21:32:18.110Z,95588.03
2018-05-09T21:34:48.755Z,95589.36
2018-05-09T21:37:19.416Z,95590.69
2018-05-09T21:39:50.827Z,95587.51
2018-05-09T21:42:21.491Z,95586.41
2018-05-09T21:44:52.166Z,95586.29
2018-05-09T21:47:22.995Z,95585.89
2018-05-09T21:49:54.180Z,95587.22
2018-05-09T21:52:24.826Z,95585.08
2018-05-09T21:54:55.466Z,95581.08
2018-05-09T21:57:26.137Z,95579.23
2018-05-09T21:59:57.539Z,95579.75
2018-05-09T22:02:28.199Z,95578.82
2018-05-09T22:04:58.859Z,95578.53
2018-05-09T22:07:30.275Z,95570.95
2018-05-09T22:10:00.919Z,95575.34
2018-05-09T22:12:31.586Z,95578.53
2018-05-09T22:15:02.238Z,95579.86
2018-05-09T22:17:32.906Z,95587.86
2018-05-09T22:20:03.538Z,95594.52
2018-05-09T22:22:34.218Z,95591.45
2018-05-09T22:25:04.865Z,95589.19
2018-05-09T22:27:35.523Z,95584.35
2018-05-09T22:30:06.154Z,95584.35
2018-05-09T22:32:36.814Z,95586.61
2018-05-09T22:35:07.463Z,95580.79
2018-05-09T22:37:38.909Z,95576.48
2018-05-09T22:40:09.112Z,95573.41
2018-05-09T22:42:39.775Z,95579.55
2018-05-09T22:45:11.195Z,95578.73
2018-05-09T22:47:41.859Z,95583.14
2018-05-09T22:50:13.270Z,95582.21
2018-05-09T22:52:43.730Z,95575.67
2018-05-09T22:55:14.372Z,95571.79
2018-05-09T22:57:45.600Z,95569.01
2018-05-09T23:00:15.916Z,95566.34
2018-05-09T23:02:46.603Z,95567.80
2018-05-09T23:05:18.063Z,95565.02
2018-05-09T23:07:48.880Z,95563.80
2018-05-09T23:10:20.189Z,95560.20
2018-05-09T23:12:50.765Z,95551.92
2018-05-09T23:15:23.378Z,95552.73
2018-05-09T23:17:54.050Z,95552.22
2018-05-09T23:20:25.503Z,95550.07
2018-05-09T23:22:56.147Z,95546.08
2018-05-09T23:25:26.777Z,95541.67
2018-05-09T23:27:58.231Z,95542.08
2018-05-09T23:30:28.675Z,95551.00
2018-05-09T23:32:59.334Z,95543.53
2018-05-09T23:35:30.077Z,95547.93
2018-05-09T23:38:00.778Z,95542.20
2018-05-09T23:40:31.549Z,95542.72
2018-05-09T23:43:02.315Z,95546.19
2018-05-09T23:45:33.023Z,95547.12
2018-05-09T23:48:03.563Z,95544.86
2018-05-09T23:50:34.215Z,95539.12
2018-05-09T23:53:04.678Z,95539.94
2018-05-09T23:55:35.476Z,95537.80
2018-05-09T23:58:07.048Z,95539.12
